Time;durP1;ratioP1;P1;durP2;ratioP2;P2;SDS_P1;SDS_P2;PMS_P1;PMS_P2;Temp;Humidity;BMP_temperature;BMP_pressure;BME280_temperature;BME280_humidity;BME280_pressure;Samples;Min_cycle;Max_cycle;Signal;HPM_P1;HPM_P2
2021/11/15 00:00:25;;;;;;;;;;;4.40;50.10;;;;;;4388944;32;19961;-40
2021/11/15 00:02:51;;;;;;;;;;;4.40;50.00;;;;;;4360184;32;20004;-39
2021/11/15 00:05:21;;;;;;;;;;;4.40;50.00;;;;;;4373824;32;20457;-40
2021/11/15 00:07:47;;;;;;;;;;;4.40;50.00;;;;;;4373712;32;20382;-40
2021/11/15 00:10:16;;;;;;;;;;;4.50;50.10;;;;;;4374235;32;19973;-40
2021/11/15 00:12:46;;;;;;;;;;;4.50;50.00;;;;;;4373589;32;19966;-40
2021/11/15 00:15:12;;;;;;;;;;;4.50;49.90;;;;;;4373812;32;20351;-40
2021/11/15 00:17:39;;;;;;;;;;;4.60;49.90;;;;;;4373438;32;19972;-39
2021/11/15 00:20:06;;;;;;;;;;;4.60;49.70;;;;;;4373539;32;20445;-39
2021/11/15 00:22:32;;;;;;;;;;;4.70;49.60;;;;;;4373452;32;20430;-40
2021/11/15 00:24:58;;;;;;;;;;;4.70;49.50;;;;;;4372052;32;20042;-41
2021/11/15 00:27:24;;;;;;;;;;;4.80;49.40;;;;;;4373375;32;19997;-40
2021/11/15 00:29:51;;;;;;;;;;;4.80;49.10;;;;;;4371713;32;19958;-39
2021/11/15 00:32:17;;;;;;;;;;;4.80;48.80;;;;;;4373856;32;20047;-41
2021/11/15 00:34:43;;;;;;;;;;;4.70;48.60;;;;;;4373088;32;20374;-40
2021/11/15 00:37:09;;;;;;;;;;;4.70;48.40;;;;;;4373560;32;20005;-39
2021/11/15 00:39:35;;;;;;;;;;;4.70;48.40;;;;;;4340298;33;20418;-38
2021/11/15 00:42:02;;;;;;;;;;;4.60;48.40;;;;;;4340841;33;19958;-40
2021/11/15 00:44:28;;;;;;;;;;;4.50;48.40;;;;;;4313897;33;19970;-39
2021/11/15 00:46:54;;;;;;;;;;;4.50;48.50;;;;;;4325899;33;20490;-40
2021/11/15 00:49:20;;;;;;;;;;;4.40;48.70;;;;;;4326120;33;20011;-41
2021/11/15 00:51:46;;;;;;;;;;;4.40;48.90;;;;;;4326137;33;19994;-39
2021/11/15 00:54:13;;;;;;;;;;;4.40;49.10;;;;;;4326405;33;19982;-39
2021/11/15 00:56:39;;;;;;;;;;;4.30;49.10;;;;;;4314121;33;19971;-39
2021/11/15 00:59:05;;;;;;;;;;;4.30;49.20;;;;;;4326580;33;20411;-40
2021/11/15 01:01:31;;;;;;;;;;;4.30;49.20;;;;;;4326122;33;19982;-40
2021/11/15 01:03:58;;;;;;;;;;;4.30;49.40;;;;;;4326006;33;19966;-40
2021/11/15 01:06:24;;;;;;;;;;;4.30;49.50;;;;;;4325789;33;19964;-40
2021/11/15 01:08:50;;;;;;;;;;;4.30;49.70;;;;;;4326414;33;19974;-41
2021/11/15 01:11:16;;;;;;;;;;;4.30;49.70;;;;;;4349136;32;19971;-40
2021/11/15 01:13:42;;;;;;;;;;;4.30;49.60;;;;;;4355289;32;19974;-38
2021/11/15 01:16:09;;;;;;;;;;;4.40;49.50;;;;;;4380886;32;20003;-39
2021/11/15 01:18:39;;;;;;;;;;;4.40;49.50;;;;;;4388487;32;19989;-39
2021/11/15 01:21:06;;;;;;;;;;;4.50;49.50;;;;;;4388141;32;19978;-38
2021/11/15 01:23:32;;;;;;;;;;;4.50;49.30;;;;;;4387791;32;19984;-40
2021/11/15 01:25:58;;;;;;;;;;;4.50;49.20;;;;;;4387755;32;20081;-39
2021/11/15 01:28:24;;;;;;;;;;;4.50;49.90;;;;;;4387923;32;19970;-40
2021/11/15 01:30:50;;;;;;;;;;;4.60;49.20;;;;;;4388200;32;20386;-39
2021/11/15 01:33:16;;;;;;;;;;;4.60;49.00;;;;;;4387671;32;19962;-41
2021/11/15 01:35:43;;;;;;;;;;;4.50;49.00;;;;;;4387673;32;20005;-40
2021/11/15 01:38:09;;;;;;;;;;;4.60;49.00;;;;;;4387910;32;20502;-38
2021/11/15 01:40:35;;;;;;;;;;;4.60;49.00;;;;;;4388259;32;19993;-40
2021/11/15 01:43:02;;;;;;;;;;;4.60;49.10;;;;;;4388034;32;19984;-39
2021/11/15 01:45:30;;;;;;;;;;;4.60;49.10;;;;;;4387936;32;20087;-40
2021/11/15 01:47:57;;;;;;;;;;;4.60;49.30;;;;;;4387613;32;20020;-40
2021/11/15 01:50:24;;;;;;;;;;;4.60;49.40;;;;;;4374253;32;19966;-39
2021/11/15 01:52:50;;;;;;;;;;;4.50;49.40;;;;;;4391001;32;19966;-40
2021/11/15 01:55:17;;;;;;;;;;;4.50;49.50;;;;;;4390709;32;20377;-40
2021/11/15 01:57:43;;;;;;;;;;;4.50;49.50;;;;;;4390337;32;19974;-40
2021/11/15 02:00:13;;;;;;;;;;;4.50;49.80;;;;;;4390755;32;19968;-38
2021/11/15 02:02:40;;;;;;;;;;;4.40;49.80;;;;;;4376789;32;20481;-38
2021/11/15 02:05:07;;;;;;;;;;;4.40;49.70;;;;;;4375967;32;19954;-40
2021/11/15 02:07:33;;;;;;;;;;;4.40;49.70;;;;;;4375164;32;19966;-40
2021/11/15 02:09:59;;;;;;;;;;;4.50;49.70;;;;;;4375681;32;19980;-41
2021/11/15 02:12:26;;;;;;;;;;;4.40;49.60;;;;;;4375178;32;19993;-40
2021/11/15 02:14:52;;;;;;;;;;;4.50;49.60;;;;;;4375838;32;19974;-40
2021/11/15 02:17:19;;;;;;;;;;;4.50;49.50;;;;;;4375514;32;20115;-39
2021/11/15 02:19:45;;;;;;;;;;;4.50;49.50;;;;;;4375291;32;19970;-40
2021/11/15 02:22:11;;;;;;;;;;;4.50;49.40;;;;;;4349121;32;20009;-39
2021/11/15 02:24:37;;;;;;;;;;;4.50;49.40;;;;;;4375510;32;20647;-38
2021/11/15 02:27:04;;;;;;;;;;;4.60;49.40;;;;;;4375391;32;20049;-39
2021/11/15 02:29:30;;;;;;;;;;;4.60;49.30;;;;;;4375185;32;19969;-40
2021/11/15 02:31:57;;;;;;;;;;;4.50;49.20;;;;;;4374891;32;19981;-37
2021/11/15 02:34:23;;;;;;;;;;;4.50;49.30;;;;;;4375035;32;19962;-40
2021/11/15 02:36:50;;;;;;;;;;;4.50;49.30;;;;;;4375505;32;20003;-40
2021/11/15 02:39:16;;;;;;;;;;;4.50;49.40;;;;;;4375214;32;19969;-40
2021/11/15 02:41:42;;;;;;;;;;;4.60;49.60;;;;;;4375379;32;19978;-38
2021/11/15 02:44:08;;;;;;;;;;;4.60;49.60;;;;;;4375325;32;19974;-40
2021/11/15 02:46:35;;;;;;;;;;;4.60;49.60;;;;;;4374709;32;20455;-39
2021/11/15 02:49:02;;;;;;;;;;;4.60;49.50;;;;;;4374649;32;20001;-41
2021/11/15 02:51:29;;;;;;;;;;;4.60;49.60;;;;;;4374571;32;20090;-40
2021/11/15 02:53:55;;;;;;;;;;;4.60;49.60;;;;;;4374826;32;20001;-40
2021/11/15 02:56:21;;;;;;;;;;;4.60;49.70;;;;;;4374721;32;19981;-39
2021/11/15 02:58:47;;;;;;;;;;;4.60;49.60;;;;;;4374767;32;20027;-38
2021/11/15 03:01:17;;;;;;;;;;;4.60;49.70;;;;;;4374689;32;19974;-39
2021/11/15 03:03:43;;;;;;;;;;;4.60;49.80;;;;;;4372849;32;20033;-39
2021/11/15 03:06:09;;;;;;;;;;;4.60;49.70;;;;;;4374908;32;19977;-41
2021/11/15 03:08:35;;;;;;;;;;;4.60;49.80;;;;;;4374353;32;19978;-39
2021/11/15 03:11:04;;;;;;;;;;;4.70;49.80;;;;;;4375059;32;20043;-41
2021/11/15 03:13:40;;;;;;;;;;;4.70;49.70;;;;;;4374894;32;19974;-43
2021/11/15 03:16:06;;;;;;;;;;;4.70;49.80;;;;;;4374213;32;19958;-40
2021/11/15 03:18:34;;;;;;;;;;;4.70;49.80;;;;;;4374172;32;20468;-39
2021/11/15 03:21:15;;;;;;;;;;;4.70;49.70;;;;;;4372827;32;19958;-39
2021/11/15 03:23:42;;;;;;;;;;;4.80;49.80;;;;;;4374774;32;19974;-40
2021/11/15 03:26:09;;;;;;;;;;;4.80;49.90;;;;;;4374364;32;19989;-38
2021/11/15 03:28:40;;;;;;;;;;;4.80;49.90;;;;;;4380289;32;20483;-41
2021/11/15 03:31:15;;;;;;;;;;;4.80;49.90;;;;;;4389427;32;19977;-41
2021/11/15 03:33:42;;;;;;;;;;;4.80;49.90;;;;;;4389396;32;19966;-40
2021/11/15 03:36:08;;;;;;;;;;;4.90;50.00;;;;;;4389451;32;20596;-40
2021/11/15 03:38:34;;;;;;;;;;;4.90;50.20;;;;;;4389600;32;20483;-41
2021/11/15 03:41:01;;;;;;;;;;;4.90;50.10;;;;;;4389138;32;20377;-41
2021/11/15 03:43:27;;;;;;;;;;;4.90;50.10;;;;;;4389478;32;20406;-40
2021/11/15 03:45:53;;;;;;;;;;;4.90;50.00;;;;;;4388805;32;19977;-40
2021/11/15 03:48:21;;;;;;;;;;;4.90;50.10;;;;;;4389401;32;19994;-41
2021/11/15 03:50:48;;;;;;;;;;;4.90;50.10;;;;;;4388880;32;20404;-39
2021/11/15 03:53:14;;;;;;;;;;;4.90;50.10;;;;;;4389413;32;20419;-41
2021/11/15 03:55:41;;;;;;;;;;;4.90;50.40;;;;;;4388774;32;19972;-41
2021/11/15 03:58:08;;;;;;;;;;;4.90;50.40;;;;;;4388960;32;20374;-41
2021/11/15 04:00:35;;;;;;;;;;;4.90;50.60;;;;;;4388178;32;20086;-41
2021/11/15 04:03:04;;;;;;;;;;;4.90;50.50;;;;;;4373673;32;19978;-40
2021/11/15 04:05:34;;;;;;;;;;;4.90;50.40;;;;;;4374128;32;19973;-42
2021/11/15 04:08:02;;;;;;;;;;;4.90;51.10;;;;;;4373751;32;19985;-41
2021/11/15 04:10:34;;;;;;;;;;;4.90;50.40;;;;;;4373857;32;19982;-41
2021/11/15 04:13:04;;;;;;;;;;;4.90;50.40;;;;;;4373449;32;19982;-39
2021/11/15 04:15:30;;;;;;;;;;;4.90;50.40;;;;;;4340107;32;19994;-40
2021/11/15 04:17:58;;;;;;;;;;;4.80;50.40;;;;;;4341198;32;20055;-39
2021/11/15 04:20:24;;;;;;;;;;;4.80;51.10;;;;;;4341296;32;19962;-40
2021/11/15 04:22:51;;;;;;;;;;;4.70;50.50;;;;;;4341356;32;19982;-42
2021/11/15 04:25:17;;;;;;;;;;;4.80;50.40;;;;;;4341085;32;20523;-41
2021/11/15 04:27:43;;;;;;;;;;;4.70;50.40;;;;;;4340896;33;20400;-39
2021/11/15 04:30:12;;;;;;;;;;;4.70;50.30;;;;;;4341335;33;20516;-42
2021/11/15 04:32:42;;;;;;;;;;;4.70;50.40;;;;;;4341132;33;20010;-41
2021/11/15 04:35:10;;;;;;;;;;;4.70;50.20;;;;;;4340818;33;20545;-41
2021/11/15 04:37:37;;;;;;;;;;;4.70;50.10;;;;;;4341143;33;20033;-40
2021/11/15 04:40:03;;;;;;;;;;;4.70;50.10;;;;;;4340555;33;19971;-41
2021/11/15 04:42:29;;;;;;;;;;;4.70;50.10;;;;;;4341036;33;20140;-40
2021/11/15 04:44:56;;;;;;;;;;;4.70;50.00;;;;;;4340886;33;20487;-41
2021/11/15 04:47:22;;;;;;;;;;;4.70;49.90;;;;;;4341048;33;20090;-40
2021/11/15 04:49:49;;;;;;;;;;;4.80;50.00;;;;;;4341012;33;20037;-40
2021/11/15 04:52:16;;;;;;;;;;;4.80;50.00;;;;;;4347514;32;19977;-40
2021/11/15 04:54:42;;;;;;;;;;;4.70;49.90;;;;;;4373163;32;19961;-40
2021/11/15 04:57:08;;;;;;;;;;;4.80;49.90;;;;;;4373257;32;20038;-41
2021/11/15 04:59:35;;;;;;;;;;;4.80;49.90;;;;;;4373228;32;20411;-41
2021/11/15 05:02:01;;;;;;;;;;;4.70;49.90;;;;;;4372752;32;20067;-42
2021/11/15 05:04:27;;;;;;;;;;;4.80;50.00;;;;;;4372885;32;19958;-41
2021/11/15 05:06:54;;;;;;;;;;;4.70;49.90;;;;;;4372916;32;20527;-42
2021/11/15 05:09:21;;;;;;;;;;;4.80;50.00;;;;;;4372940;32;20063;-42
2021/11/15 05:11:47;;;;;;;;;;;4.80;49.90;;;;;;4358716;32;20054;-40
2021/11/15 05:14:14;;;;;;;;;;;4.80;50.00;;;;;;4372825;32;20412;-41
2021/11/15 05:16:40;;;;;;;;;;;4.80;50.00;;;;;;4359306;32;20488;-41
2021/11/15 05:19:06;;;;;;;;;;;4.80;50.80;;;;;;4372926;32;20406;-42
2021/11/15 05:21:32;;;;;;;;;;;4.80;50.10;;;;;;4372457;32;20075;-41
2021/11/15 05:23:59;;;;;;;;;;;4.90;50.20;;;;;;4372899;32;19967;-39
2021/11/15 05:26:25;;;;;;;;;;;4.90;50.10;;;;;;4372516;32;19997;-41
2021/11/15 05:28:51;;;;;;;;;;;5.00;50.00;;;;;;4379815;32;20426;-40
2021/11/15 05:31:18;;;;;;;;;;;5.00;50.00;;;;;;4387995;32;20397;-41
2021/11/15 05:33:44;;;;;;;;;;;5.10;49.80;;;;;;4387794;32;20416;-42
2021/11/15 05:36:10;;;;;;;;;;;5.10;49.70;;;;;;4388014;32;20072;-43
2021/11/15 05:38:36;;;;;;;;;;;5.10;49.80;;;;;;4387394;32;20573;-40
2021/11/15 05:41:03;;;;;;;;;;;5.20;49.80;;;;;;4387684;32;19984;-42
2021/11/15 05:43:29;;;;;;;;;;;5.20;49.70;;;;;;4387475;32;20453;-41
2021/11/15 05:45:55;;;;;;;;;;;5.30;49.60;;;;;;4387351;32;20441;-40
2021/11/15 05:48:22;;;;;;;;;;;5.30;49.50;;;;;;4387993;32;19989;-41
2021/11/15 05:50:48;;;;;;;;;;;5.40;49.30;;;;;;4387538;32;20021;-38
2021/11/15 05:53:15;;;;;;;;;;;5.40;49.10;;;;;;4387717;32;19958;-41
2021/11/15 05:55:42;;;;;;;;;;;5.40;49.00;;;;;;4387894;32;20395;-43
2021/11/15 05:58:09;;;;;;;;;;;5.50;48.90;;;;;;4387318;32;20504;-42
2021/11/15 06:00:35;;;;;;;;;;;5.50;48.60;;;;;;4372514;32;19977;-41
2021/11/15 06:03:02;;;;;;;;;;;5.50;48.40;;;;;;4372555;32;20050;-41
2021/11/15 06:05:28;;;;;;;;;;;5.60;49.20;;;;;;4372200;32;19974;-42
2021/11/15 06:07:54;;;;;;;;;;;5.60;48.40;;;;;;4372123;32;19985;-40
2021/11/15 06:10:21;;;;;;;;;;;5.60;48.30;;;;;;4371407;32;19966;-39
2021/11/15 06:12:47;;;;;;;;;;;5.70;48.40;;;;;;4324914;33;19975;-41
2021/11/15 06:15:14;;;;;;;;;;;5.70;48.30;;;;;;4325192;33;20068;-40
2021/11/15 06:17:41;;;;;;;;;;;5.70;48.40;;;;;;4325220;33;20520;-41
2021/11/15 06:20:08;;;;;;;;;;;5.70;48.10;;;;;;4325586;33;20012;-41
2021/11/15 06:22:35;;;;;;;;;;;5.80;47.70;;;;;;4325180;33;20380;-40
2021/11/15 06:25:03;;;;;;;;;;;5.80;47.60;;;;;;4325637;33;19963;-40
2021/11/15 06:27:29;;;;;;;;;;;5.80;47.80;;;;;;4325707;33;19970;-41
2021/11/15 06:29:55;;;;;;;;;;;5.90;47.70;;;;;;4338525;33;19974;-37
2021/11/15 06:32:21;;;;;;;;;;;6.00;47.50;;;;;;4339798;33;19986;-40
2021/11/15 06:34:48;;;;;;;;;;;5.90;47.50;;;;;;4327660;33;19990;-40
2021/11/15 06:37:14;;;;;;;;;;;6.00;47.40;;;;;;4339988;32;19971;-41
2021/11/15 06:39:40;;;;;;;;;;;6.00;47.40;;;;;;4342459;33;20590;-43
2021/11/15 06:42:07;;;;;;;;;;;6.00;48.20;;;;;;4342407;33;20406;-44
2021/11/15 06:44:33;;;;;;;;;;;6.00;47.40;;;;;;4369059;32;19958;-45
2021/11/15 06:46:59;;;;;;;;;;;6.00;47.30;;;;;;4374990;32;20491;-49
2021/11/15 06:49:26;;;;;;;;;;;6.00;47.40;;;;;;4375094;32;20042;-40
2021/11/15 06:51:52;;;;;;;;;;;6.10;47.20;;;;;;4375047;32;19966;-51
2021/11/15 06:54:19;;;;;;;;;;;6.10;47.20;;;;;;4374858;32;19999;-46
2021/11/15 06:56:45;;;;;;;;;;;6.20;47.20;;;;;;4374620;32;20009;-50
2021/11/15 06:59:12;;;;;;;;;;;6.20;46.90;;;;;;4360745;32;20396;-48
2021/11/15 07:01:38;;;;;;;;;;;6.20;46.90;;;;;;4382174;32;20068;-49
2021/11/15 07:04:05;;;;;;;;;;;6.30;46.90;;;;;;4389664;32;19981;-42
2021/11/15 07:06:31;;;;;;;;;;;6.30;46.70;;;;;;4389512;32;20084;-45
2021/11/15 07:08:57;;;;;;;;;;;6.30;46.40;;;;;;4389120;32;20390;-43
2021/11/15 07:11:23;;;;;;;;;;;6.30;46.00;;;;;;4389512;32;20076;-49
2021/11/15 07:13:50;;;;;;;;;;;6.40;46.20;;;;;;4389264;32;20051;-48
2021/11/15 07:16:16;;;;;;;;;;;6.40;45.90;;;;;;4389443;32;19969;-48
2021/11/15 07:18:42;;;;;;;;;;;6.50;45.90;;;;;;4375113;32;19993;-45
2021/11/15 07:21:08;;;;;;;;;;;6.60;45.80;;;;;;4389507;32;19968;-46
2021/11/15 07:23:35;;;;;;;;;;;6.60;45.80;;;;;;4389144;32;20410;-44
2021/11/15 07:26:01;;;;;;;;;;;6.70;45.90;;;;;;4389241;32;20065;-45
2021/11/15 07:28:27;;;;;;;;;;;6.70;45.90;;;;;;4389622;32;20032;-44
2021/11/15 07:30:56;;;;;;;;;;;6.80;46.00;;;;;;4389152;32;19981;-44
2021/11/15 07:33:24;;;;;;;;;;;6.80;45.70;;;;;;4389013;32;20489;-46
2021/11/15 07:35:50;;;;;;;;;;;6.80;45.50;;;;;;4388932;32;19981;-46
2021/11/15 07:38:17;;;;;;;;;;;6.90;45.30;;;;;;4388855;32;19966;-46
2021/11/15 07:40:44;;;;;;;;;;;7.00;45.50;;;;;;4389084;32;19969;-48
2021/11/15 07:43:10;;;;;;;;;;;7.10;45.60;;;;;;4375108;32;20443;-48
2021/11/15 07:45:36;;;;;;;;;;;7.20;45.50;;;;;;4388741;32;20023;-45
2021/11/15 07:48:02;;;;;;;;;;;7.30;45.60;;;;;;4388898;32;19969;-45
2021/11/15 07:50:29;;;;;;;;;;;7.50;44.90;;;;;;4389081;32;19958;-43
2021/11/15 07:52:55;;;;;;;;;;;7.50;44.70;;;;;;4389149;32;20495;-44
2021/11/15 07:55:21;;;;;;;;;;;7.60;45.10;;;;;;4374628;32;20406;-44
2021/11/15 07:57:47;;;;;;;;;;;7.60;44.20;;;;;;4388970;32;20012;-45
2021/11/15 08:00:16;;;;;;;;;;;7.70;44.30;;;;;;4388876;32;19973;-45
2021/11/15 08:02:42;;;;;;;;;;;7.80;45.00;;;;;;4374033;32;20404;-46
2021/11/15 08:05:09;;;;;;;;;;;7.80;44.60;;;;;;4373596;32;20006;-46
2021/11/15 08:07:36;;;;;;;;;;;8.00;44.10;;;;;;4373976;32;19984;-47
2021/11/15 08:10:04;;;;;;;;;;;8.20;43.50;;;;;;4359645;32;20331;-46
2021/11/15 08:12:38;;;;;;;;;;;8.40;43.10;;;;;;4373422;32;20400;-41
2021/11/15 08:15:07;;;;;;;;;;;8.50;43.60;;;;;;4373686;32;19974;-45
2021/11/15 08:17:37;;;;;;;;;;;8.70;42.50;;;;;;4373539;32;19962;-43
2021/11/15 08:20:05;;;;;;;;;;;8.90;42.30;;;;;;4373773;32;19981;-45
2021/11/15 08:22:32;;;;;;;;;;;9.10;42.50;;;;;;4373661;32;20475;-40
2021/11/15 08:25:01;;;;;;;;;;;9.20;42.50;;;;;;4373566;32;20408;-46
2021/11/15 08:27:29;;;;;;;;;;;9.30;41.00;;;;;;4373826;32;20054;-46
2021/11/15 08:29:55;;;;;;;;;;;9.40;40.80;;;;;;4359144;32;19970;-45
2021/11/15 08:32:24;;;;;;;;;;;9.50;40.70;;;;;;4373442;32;20089;-48
2021/11/15 08:34:52;;;;;;;;;;;9.60;41.10;;;;;;4348037;32;19968;-45
2021/11/15 08:37:18;;;;;;;;;;;9.70;41.40;;;;;;4359372;32;20005;-46
2021/11/15 08:39:44;;;;;;;;;;;9.70;40.30;;;;;;4359025;32;20401;-46
2021/11/15 08:42:10;;;;;;;;;;;9.60;40.70;;;;;;4359393;32;19981;-42
2021/11/15 08:44:43;;;;;;;;;;;9.60;40.60;;;;;;4372937;32;19954;-45
2021/11/15 08:47:09;;;;;;;;;;;9.70;40.20;;;;;;4373197;32;19978;-40
2021/11/15 08:49:36;;;;;;;;;;;9.90;39.90;;;;;;4373224;32;19978;-43
2021/11/15 08:52:04;;;;;;;;;;;10.10;39.80;;;;;;4373322;32;19968;-45
2021/11/15 08:54:30;;;;;;;;;;;10.20;39.60;;;;;;4372892;32;20087;-42
2021/11/15 08:57:06;;;;;;;;;;;10.30;39.30;;;;;;4358997;32;20386;-43
2021/11/15 08:59:32;;;;;;;;;;;10.40;38.40;;;;;;4373188;32;20027;-43
2021/11/15 09:01:59;;;;;;;;;;;10.60;38.50;;;;;;4358835;32;19997;-44
2021/11/15 09:04:25;;;;;;;;;;;10.80;39.00;;;;;;4358673;32;19989;-42
2021/11/15 09:06:52;;;;;;;;;;;11.00;38.00;;;;;;4372397;32;19969;-43
2021/11/15 09:09:18;;;;;;;;;;;11.00;37.80;;;;;;4372219;32;20070;-42
2021/11/15 09:11:46;;;;;;;;;;;10.80;37.00;;;;;;4372821;32;19962;-43
2021/11/15 09:14:12;;;;;;;;;;;10.60;37.10;;;;;;4372580;32;20444;-43
2021/11/15 09:16:39;;;;;;;;;;;10.40;37.70;;;;;;4372634;32;19974;-42
2021/11/15 09:19:05;;;;;;;;;;;10.30;38.30;;;;;;4372433;32;20042;-42
2021/11/15 09:21:31;;;;;;;;;;;10.10;38.30;;;;;;4372766;32;20422;-43
2021/11/15 09:23:58;;;;;;;;;;;10.00;38.30;;;;;;4372640;32;19992;-43
2021/11/15 09:26:26;;;;;;;;;;;9.90;38.70;;;;;;4371041;32;19992;-41
2021/11/15 09:28:54;;;;;;;;;;;9.80;38.80;;;;;;4358812;32;19969;-43
2021/11/15 09:31:20;;;;;;;;;;;9.60;38.70;;;;;;4372491;32;19966;-43
2021/11/15 09:33:47;;;;;;;;;;;9.30;38.80;;;;;;4372603;32;19962;-44
2021/11/15 09:36:13;;;;;;;;;;;9.10;39.30;;;;;;4372515;32;20074;-42
2021/11/15 09:38:43;;;;;;;;;;;8.90;39.80;;;;;;4372525;32;19970;-43
2021/11/15 09:41:09;;;;;;;;;;;8.70;40.20;;;;;;4372922;32;20379;-44
2021/11/15 09:43:36;;;;;;;;;;;8.60;40.50;;;;;;4372632;32;19970;-44
2021/11/15 09:46:04;;;;;;;;;;;8.50;40.80;;;;;;4372345;32;20441;-44
2021/11/15 09:48:34;;;;;;;;;;;8.40;41.40;;;;;;4372177;32;20481;-44
2021/11/15 09:51:02;;;;;;;;;;;8.30;41.50;;;;;;4372316;32;19968;-43
2021/11/15 09:53:28;;;;;;;;;;;8.20;41.80;;;;;;4369548;32;19969;-43
2021/11/15 09:55:55;;;;;;;;;;;8.20;42.00;;;;;;4369737;32;19981;-44
2021/11/15 09:58:22;;;;;;;;;;;8.10;42.30;;;;;;4369986;32;20496;-46
2021/11/15 10:00:48;;;;;;;;;;;8.00;42.80;;;;;;4372422;32;20046;-47
2021/11/15 10:03:16;;;;;;;;;;;8.00;42.70;;;;;;4385279;32;19997;-44
2021/11/15 10:05:43;;;;;;;;;;;8.10;42.70;;;;;;4384897;32;19989;-43
2021/11/15 10:08:12;;;;;;;;;;;8.10;42.60;;;;;;4384748;32;20378;-43
2021/11/15 10:10:43;;;;;;;;;;;8.10;42.30;;;;;;4372571;32;20005;-40
2021/11/15 10:13:14;;;;;;;;;;;8.10;42.20;;;;;;4387493;32;19970;-43
2021/11/15 10:16:16;;;;;;;;;;;8.00;41.80;;;;;;4388142;32;20534;-41
2021/11/15 10:18:53;;;;;;;;;;;7.90;41.70;;;;;;4388074;32;19973;-43
2021/11/15 10:21:36;;;;;;;;;;;7.90;41.90;;;;;;4387831;32;20060;-42
2021/11/15 10:24:05;;;;;;;;;;;7.80;42.10;;;;;;4387846;32;20058;-44
2021/11/15 10:26:43;;;;;;;;;;;7.80;42.10;;;;;;4387737;32;20032;-43
2021/11/15 10:29:17;;;;;;;;;;;7.80;42.20;;;;;;4387304;32;19957;-42
2021/11/15 10:31:50;;;;;;;;;;;7.70;42.20;;;;;;4389521;32;19989;-42
2021/11/15 10:34:29;;;;;;;;;;;7.60;42.50;;;;;;4390326;32;19965;-44
2021/11/15 10:37:16;;;;;;;;;;;7.60;42.50;;;;;;4390298;32;20049;-43
2021/11/15 10:39:51;;;;;;;;;;;7.60;42.40;;;;;;4389969;32;20408;-41
2021/11/15 10:42:21;;;;;;;;;;;7.50;42.50;;;;;;4390189;32;19969;-40
2021/11/15 10:44:54;;;;;;;;;;;7.50;42.40;;;;;;4390115;32;20386;-42
2021/11/15 10:47:32;;;;;;;;;;;7.50;42.60;;;;;;4390231;32;19972;-43
2021/11/15 10:50:11;;;;;;;;;;;7.50;42.40;;;;;;4389764;32;19966;-41
2021/11/15 10:52:41;;;;;;;;;;;7.30;42.70;;;;;;4390194;32;20373;-44
2021/11/15 10:55:08;;;;;;;;;;;7.30;43.10;;;;;;4390339;32;20436;-43
2021/11/15 10:57:48;;;;;;;;;;;7.30;43.30;;;;;;4389881;32;20425;-43
2021/11/15 11:00:16;;;;;;;;;;;7.30;43.20;;;;;;4389396;32;19977;-42
2021/11/15 11:02:44;;;;;;;;;;;7.30;42.90;;;;;;4375686;32;19988;-42
2021/11/15 11:05:13;;;;;;;;;;;7.10;42.60;;;;;;4375189;32;20002;-41
2021/11/15 11:07:40;;;;;;;;;;;7.10;42.90;;;;;;4374476;32;19973;-41
2021/11/15 11:10:07;;;;;;;;;;;7.00;42.60;;;;;;4371898;32;19969;-43
2021/11/15 11:12:42;;;;;;;;;;;6.90;42.80;;;;;;4371781;32;20056;-41
2021/11/15 11:15:23;;;;;;;;;;;6.80;42.90;;;;;;4372157;32;19965;-42
2021/11/15 11:18:17;;;;;;;;;;;6.70;43.10;;;;;;4371927;32;19968;-41
2021/11/15 11:21:11;;;;;;;;;;;6.70;43.00;;;;;;4371867;32;20402;-42
2021/11/15 11:26:13;;;;;;;;;;;6.50;43.40;;;;;;4372252;32;19975;-41
2021/11/15 11:28:42;;;;;;;;;;;6.50;43.40;;;;;;4371269;32;19969;-42
2021/11/15 11:31:09;;;;;;;;;;;6.40;43.60;;;;;;4371502;32;19976;-42
2021/11/15 11:33:35;;;;;;;;;;;6.40;44.00;;;;;;4371489;32;19974;-42
2021/11/15 11:36:02;;;;;;;;;;;6.40;43.10;;;;;;4371567;32;20045;-45
2021/11/15 11:38:29;;;;;;;;;;;6.30;43.00;;;;;;4371167;32;19969;-49
2021/11/15 11:40:55;;;;;;;;;;;6.20;43.20;;;;;;4366166;32;20066;-47
2021/11/15 11:43:22;;;;;;;;;;;6.10;43.30;;;;;;4358955;32;20518;-46
2021/11/15 11:45:48;;;;;;;;;;;6.10;43.20;;;;;;4358761;32;19962;-41
2021/11/15 11:48:16;;;;;;;;;;;6.00;42.70;;;;;;4359438;32;19966;-41
2021/11/15 11:50:46;;;;;;;;;;;5.90;42.60;;;;;;4357739;32;20005;-42
2021/11/15 11:53:13;;;;;;;;;;;5.70;42.50;;;;;;4359149;32;20386;-42
2021/11/15 11:55:42;;;;;;;;;;;5.40;42.60;;;;;;4358726;32;20007;-41
2021/11/15 11:58:19;;;;;;;;;;;5.30;43.10;;;;;;4358938;32;20398;-41
2021/11/15 12:00:52;;;;;;;;;;;5.20;43.90;;;;;;4361213;32;20001;-40
2021/11/15 12:03:19;;;;;;;;;;;5.10;43.20;;;;;;4360329;32;19961;-41
2021/11/15 12:05:45;;;;;;;;;;;5.10;43.10;;;;;;4373737;32;19958;-41
2021/11/15 12:08:11;;;;;;;;;;;5.00;43.30;;;;;;4359389;32;20021;-41
2021/11/15 12:10:57;;;;;;;;;;;4.90;43.60;;;;;;4374000;32;19969;-43
2021/11/15 12:13:24;;;;;;;;;;;4.70;43.80;;;;;;4372482;32;20424;-41
2021/11/15 12:16:00;;;;;;;;;;;4.60;44.20;;;;;;4372804;32;19966;-42
2021/11/15 12:18:33;;;;;;;;;;;4.50;44.40;;;;;;4360191;32;19996;-41
2021/11/15 12:21:03;;;;;;;;;;;4.40;44.50;;;;;;4373059;32;20005;-42
2021/11/15 12:23:35;;;;;;;;;;;4.30;44.90;;;;;;4373262;32;20399;-43
2021/11/15 12:26:04;;;;;;;;;;;4.20;44.90;;;;;;4354269;32;20432;-42
2021/11/15 12:28:34;;;;;;;;;;;4.10;45.60;;;;;;4367479;32;20378;-43
2021/11/15 12:31:01;;;;;;;;;;;4.00;46.00;;;;;;4373043;32;19986;-42
2021/11/15 12:33:28;;;;;;;;;;;3.90;46.10;;;;;;4373254;32;19972;-42
2021/11/15 12:35:57;;;;;;;;;;;3.80;45.90;;;;;;4372812;32;20042;-42
2021/11/15 12:38:37;;;;;;;;;;;3.70;46.00;;;;;;4373486;32;19970;-42
2021/11/15 12:41:16;;;;;;;;;;;3.70;46.30;;;;;;4371410;32;19977;-44
2021/11/15 12:43:43;;;;;;;;;;;3.60;46.50;;;;;;4373587;32;19974;-43
2021/11/15 12:46:18;;;;;;;;;;;3.40;46.60;;;;;;4373003;32;19962;-42
2021/11/15 12:48:48;;;;;;;;;;;3.30;46.80;;;;;;4359655;32;20401;-42
2021/11/15 12:51:22;;;;;;;;;;;3.10;46.60;;;;;;4373777;32;20005;-43
2021/11/15 12:53:52;;;;;;;;;;;3.10;46.60;;;;;;4373080;32;19982;-43
2021/11/15 12:56:22;;;;;;;;;;;2.90;47.10;;;;;;4373074;32;19974;-42
2021/11/15 12:58:51;;;;;;;;;;;2.70;47.20;;;;;;4372388;32;19966;-42
2021/11/15 13:01:19;;;;;;;;;;;2.70;47.40;;;;;;4373287;32;19977;-41
2021/11/15 13:03:47;;;;;;;;;;;2.50;47.30;;;;;;4372991;32;20487;-42
2021/11/15 13:06:14;;;;;;;;;;;2.40;47.40;;;;;;4373106;32;19973;-44
2021/11/15 13:08:43;;;;;;;;;;;2.30;47.70;;;;;;4372992;32;19974;-41
2021/11/15 13:11:11;;;;;;;;;;;2.30;47.90;;;;;;4373151;32;19976;-43
2021/11/15 13:13:37;;;;;;;;;;;2.20;47.90;;;;;;4372389;32;20572;-42
2021/11/15 13:16:04;;;;;;;;;;;2.10;48.30;;;;;;4372477;32;20058;-42
2021/11/15 13:18:30;;;;;;;;;;;2.00;48.70;;;;;;4372722;32;19977;-43
2021/11/15 13:20:57;;;;;;;;;;;1.90;49.10;;;;;;4372762;32;20392;-43
2021/11/15 13:23:25;;;;;;;;;;;1.90;49.30;;;;;;4372378;32;20464;-40
2021/11/15 13:25:51;;;;;;;;;;;1.80;49.30;;;;;;4372525;32;19962;-41
2021/11/15 13:28:17;;;;;;;;;;;1.70;49.30;;;;;;4375869;32;20500;-42
2021/11/15 13:30:43;;;;;;;;;;;1.60;49.30;;;;;;4361475;32;20494;-43
2021/11/15 13:33:10;;;;;;;;;;;1.60;49.30;;;;;;4387041;32;20037;-41
2021/11/15 13:35:36;;;;;;;;;;;1.60;49.30;;;;;;4373334;32;19993;-42
2021/11/15 13:38:03;;;;;;;;;;;1.50;48.90;;;;;;4387823;32;20041;-41
2021/11/15 13:40:41;;;;;;;;;;;1.40;48.50;;;;;;4361120;32;20377;-42
2021/11/15 13:43:09;;;;;;;;;;;1.30;48.40;;;;;;4387284;32;20059;-42
2021/11/15 13:45:35;;;;;;;;;;;1.20;48.80;;;;;;4387869;32;19961;-41
2021/11/15 13:48:02;;;;;;;;;;;1.10;48.90;;;;;;4389500;32;19965;-42
2021/11/15 13:50:29;;;;;;;;;;;0.90;48.90;;;;;;4390985;32;19985;-43
2021/11/15 13:52:55;;;;;;;;;;;0.80;49.50;;;;;;4390788;32;20403;-41
2021/11/15 13:55:21;;;;;;;;;;;0.80;49.90;;;;;;4390853;32;19973;-41
2021/11/15 13:57:47;;;;;;;;;;;0.70;50.20;;;;;;4390376;32;20045;-41
2021/11/15 14:00:14;;;;;;;;;;;0.70;50.60;;;;;;4390665;32;19969;-41
2021/11/15 14:02:40;;;;;;;;;;;0.70;50.90;;;;;;4390705;32;20006;-41
2021/11/15 14:05:07;;;;;;;;;;;0.60;50.90;;;;;;4390183;32;19969;-40
2021/11/15 14:07:33;;;;;;;;;;;0.70;51.00;;;;;;4376806;32;20428;-43
2021/11/15 14:09:59;;;;;;;;;;;0.70;51.10;;;;;;4390722;32;19972;-41
2021/11/15 14:12:28;;;;;;;;;;;0.50;51.50;;;;;;4390246;32;20007;-42
2021/11/15 14:14:56;;;;;;;;;;;0.50;52.10;;;;;;4389766;32;20383;-42
2021/11/15 14:17:24;;;;;;;;;;;0.40;52.60;;;;;;4389940;32;20110;-43
2021/11/15 14:19:50;;;;;;;;;;;0.40;52.80;;;;;;4388520;32;19973;-42
2021/11/15 14:22:16;;;;;;;;;;;0.30;53.20;;;;;;4357045;32;19990;-42
2021/11/15 14:24:44;;;;;;;;;;;0.20;53.50;;;;;;4356777;32;19994;-42
2021/11/15 14:27:11;;;;;;;;;;;0.20;53.70;;;;;;4357060;32;19981;-43
2021/11/15 14:29:37;;;;;;;;;;;0.10;53.70;;;;;;4357416;32;19977;-43
2021/11/15 14:32:04;;;;;;;;;;;0.10;53.60;;;;;;4357453;32;20109;-44
2021/11/15 14:34:30;;;;;;;;;;;0.10;53.70;;;;;;4356916;32;20061;-42